sensor_id;sensor_type;location;lat;lon;timestamp;P1;durP1;ratioP1;P2;durP2;ratioP2
9420;SDS011;4749;51.398;5.466;2023-03-14T00:01:14;3.30;;;1.08;;
9420;SDS011;4749;51.398;5.466;2023-03-14T00:03:44;4.25;;;1.30;;
9420;SDS011;4749;51.398;5.466;2023-03-14T00:06:12;6.07;;;1.85;;
9420;SDS011;4749;51.398;5.466;2023-03-14T00:08:41;5.10;;;1.02;;
9420;SDS011;4749;51.398;5.466;2023-03-14T00:11:13;7.57;;;1.75;;
9420;SDS011;4749;51.398;5.466;2023-03-14T00:13:48;5.57;;;1.42;;
9420;SDS011;4749;51.398;5.466;2023-03-14T00:16:17;5.03;;;1.30;;
9420;SDS011;4749;51.398;5.466;2023-03-14T00:18:45;4.55;;;1.02;;
9420;SDS011;4749;51.398;5.466;2023-03-14T00:21:13;6.30;;;1.40;;
9420;SDS011;4749;51.398;5.466;2023-03-14T00:23:41;4.30;;;1.17;;
9420;SDS011;4749;51.398;5.466;2023-03-14T00:26:10;3.17;;;1.30;;
9420;SDS011;4749;51.398;5.466;2023-03-14T00:28:40;4.78;;;1.27;;
9420;SDS011;4749;51.398;5.466;2023-03-14T00:31:09;3.63;;;0.90;;
9420;SDS011;4749;51.398;5.466;2023-03-14T00:33:39;4.38;;;1.30;;
9420;SDS011;4749;51.398;5.466;2023-03-14T00:36:08;7.10;;;1.55;;
9420;SDS011;4749;51.398;5.466;2023-03-14T00:38:39;4.53;;;1.42;;
9420;SDS011;4749;51.398;5.466;2023-03-14T00:41:12;7.30;;;1.00;;
9420;SDS011;4749;51.398;5.466;2023-03-14T00:43:42;4.78;;;1.10;;
9420;SDS011;4749;51.398;5.466;2023-03-14T00:46:09;8.10;;;1.58;;
9420;SDS011;4749;51.398;5.466;2023-03-14T00:48:37;7.30;;;1.98;;
9420;SDS011;4749;51.398;5.466;2023-03-14T00:51:05;5.95;;;1.13;;
9420;SDS011;4749;51.398;5.466;2023-03-14T00:53:37;5.72;;;1.10;;
9420;SDS011;4749;51.398;5.466;2023-03-14T00:56:07;5.38;;;1.17;;
9420;SDS011;4749;51.398;5.466;2023-03-14T00:58:38;5.35;;;1.20;;
9420;SDS011;4749;51.398;5.466;2023-03-14T01:01:09;3.30;;;1.00;;
9420;SDS011;4749;51.398;5.466;2023-03-14T01:03:40;5.45;;;1.10;;
9420;SDS011;4749;51.398;5.466;2023-03-14T01:06:08;6.60;;;1.23;;
9420;SDS011;4749;51.398;5.466;2023-03-14T01:08:45;5.68;;;1.23;;
9420;SDS011;4749;51.398;5.466;2023-03-14T01:11:14;2.53;;;1.00;;
9420;SDS011;4749;51.398;5.466;2023-03-14T01:13:45;3.50;;;0.90;;
9420;SDS011;4749;51.398;5.466;2023-03-14T01:16:13;3.78;;;1.10;;
9420;SDS011;4749;51.398;5.466;2023-03-14T01:18:42;2.20;;;0.90;;
9420;SDS011;4749;51.398;5.466;2023-03-14T01:21:15;3.35;;;1.00;;
9420;SDS011;4749;51.398;5.466;2023-03-14T01:23:48;4.40;;;0.90;;
9420;SDS011;4749;51.398;5.466;2023-03-14T01:26:18;1.40;;;0.70;;
9420;SDS011;4749;51.398;5.466;2023-03-14T01:28:49;4.93;;;0.98;;
9420;SDS011;4749;51.398;5.466;2023-03-14T01:31:19;2.95;;;0.90;;
9420;SDS011;4749;51.398;5.466;2023-03-14T01:33:46;4.43;;;1.08;;
9420;SDS011;4749;51.398;5.466;2023-03-14T01:36:14;3.47;;;0.95;;
9420;SDS011;4749;51.398;5.466;2023-03-14T01:38:42;2.45;;;0.90;;
9420;SDS011;4749;51.398;5.466;2023-03-14T01:41:14;2.40;;;1.08;;
9420;SDS011;4749;51.398;5.466;2023-03-14T01:43:45;4.72;;;1.15;;
9420;SDS011;4749;51.398;5.466;2023-03-14T01:46:30;6.22;;;1.15;;
9420;SDS011;4749;51.398;5.466;2023-03-14T01:52:10;3.10;;;1.00;;
9420;SDS011;4749;51.398;5.466;2023-03-14T01:54:53;7.20;;;1.27;;
9420;SDS011;4749;51.398;5.466;2023-03-14T01:57:38;3.88;;;0.90;;
9420;SDS011;4749;51.398;5.466;2023-03-14T02:00:23;4.55;;;0.88;;
9420;SDS011;4749;51.398;5.466;2023-03-14T02:03:07;3.90;;;1.27;;
9420;SDS011;4749;51.398;5.466;2023-03-14T02:05:41;5.15;;;1.20;;
9420;SDS011;4749;51.398;5.466;2023-03-14T02:08:11;3.88;;;1.10;;
9420;SDS011;4749;51.398;5.466;2023-03-14T02:10:42;4.53;;;1.13;;
9420;SDS011;4749;51.398;5.466;2023-03-14T02:13:14;6.32;;;1.23;;
9420;SDS011;4749;51.398;5.466;2023-03-14T02:15:44;8.68;;;1.30;;
9420;SDS011;4749;51.398;5.466;2023-03-14T02:18:12;2.97;;;0.95;;
9420;SDS011;4749;51.398;5.466;2023-03-14T02:23:11;5.93;;;1.25;;
9420;SDS011;4749;51.398;5.466;2023-03-14T02:25:52;6.32;;;1.50;;
9420;SDS011;4749;51.398;5.466;2023-03-14T02:28:31;4.75;;;1.30;;
9420;SDS011;4749;51.398;5.466;2023-03-14T02:30:58;6.82;;;1.50;;
9420;SDS011;4749;51.398;5.466;2023-03-14T02:33:25;6.32;;;1.83;;
9420;SDS011;4749;51.398;5.466;2023-03-14T02:35:55;11.30;;;1.63;;
9420;SDS011;4749;51.398;5.466;2023-03-14T02:38:35;5.60;;;1.20;;
9420;SDS011;4749;51.398;5.466;2023-03-14T02:41:09;8.40;;;1.27;;
9420;SDS011;4749;51.398;5.466;2023-03-14T02:43:36;6.82;;;1.30;;
9420;SDS011;4749;51.398;5.466;2023-03-14T02:46:04;8.05;;;1.50;;
9420;SDS011;4749;51.398;5.466;2023-03-14T02:48:35;4.47;;;1.17;;
9420;SDS011;4749;51.398;5.466;2023-03-14T02:51:09;7.13;;;1.67;;
9420;SDS011;4749;51.398;5.466;2023-03-14T02:53:38;6.20;;;2.22;;
9420;SDS011;4749;51.398;5.466;2023-03-14T02:56:07;5.75;;;1.30;;
9420;SDS011;4749;51.398;5.466;2023-03-14T02:58:36;4.22;;;1.20;;
9420;SDS011;4749;51.398;5.466;2023-03-14T03:01:04;9.63;;;1.50;;
9420;SDS011;4749;51.398;5.466;2023-03-14T03:03:32;6.75;;;1.33;;
9420;SDS011;4749;51.398;5.466;2023-03-14T03:06:00;7.25;;;1.50;;
9420;SDS011;4749;51.398;5.466;2023-03-14T03:08:28;5.30;;;1.38;;
9420;SDS011;4749;51.398;5.466;2023-03-14T03:10:57;7.25;;;1.17;;
9420;SDS011;4749;51.398;5.466;2023-03-14T03:13:25;8.73;;;2.08;;
9420;SDS011;4749;51.398;5.466;2023-03-14T03:15:53;5.10;;;1.73;;
9420;SDS011;4749;51.398;5.466;2023-03-14T03:18:20;7.70;;;1.60;;
9420;SDS011;4749;51.398;5.466;2023-03-14T03:20:48;6.80;;;1.48;;
9420;SDS011;4749;51.398;5.466;2023-03-14T03:23:15;7.25;;;1.65;;
9420;SDS011;4749;51.398;5.466;2023-03-14T03:25:46;9.13;;;1.73;;
9420;SDS011;4749;51.398;5.466;2023-03-14T03:28:16;6.03;;;1.00;;
9420;SDS011;4749;51.398;5.466;2023-03-14T03:30:44;6.35;;;1.67;;
9420;SDS011;4749;51.398;5.466;2023-03-14T03:33:11;8.25;;;1.33;;
9420;SDS011;4749;51.398;5.466;2023-03-14T03:35:47;6.03;;;1.40;;
9420;SDS011;4749;51.398;5.466;2023-03-14T03:38:16;5.10;;;1.30;;
9420;SDS011;4749;51.398;5.466;2023-03-14T03:40:43;6.25;;;1.40;;
9420;SDS011;4749;51.398;5.466;2023-03-14T03:43:11;7.03;;;1.50;;
9420;SDS011;4749;51.398;5.466;2023-03-14T03:45:38;7.73;;;1.60;;
9420;SDS011;4749;51.398;5.466;2023-03-14T03:48:05;9.53;;;1.57;;
9420;SDS011;4749;51.398;5.466;2023-03-14T03:50:33;6.80;;;1.30;;
9420;SDS011;4749;51.398;5.466;2023-03-14T03:53:00;4.90;;;1.40;;
9420;SDS011;4749;51.398;5.466;2023-03-14T03:55:28;5.20;;;1.17;;
9420;SDS011;4749;51.398;5.466;2023-03-14T03:57:55;3.67;;;0.90;;
9420;SDS011;4749;51.398;5.466;2023-03-14T04:00:22;3.17;;;1.10;;
9420;SDS011;4749;51.398;5.466;2023-03-14T04:02:50;9.13;;;1.33;;
9420;SDS011;4749;51.398;5.466;2023-03-14T04:05:17;7.30;;;1.00;;
9420;SDS011;4749;51.398;5.466;2023-03-14T04:07:45;6.83;;;1.03;;
9420;SDS011;4749;51.398;5.466;2023-03-14T04:10:12;3.92;;;1.40;;
9420;SDS011;4749;51.398;5.466;2023-03-14T04:12:39;3.97;;;0.95;;
9420;SDS011;4749;51.398;5.466;2023-03-14T04:15:06;5.13;;;0.93;;
9420;SDS011;4749;51.398;5.466;2023-03-14T04:17:34;2.47;;;0.80;;
9420;SDS011;4749;51.398;5.466;2023-03-14T04:20:02;3.43;;;0.87;;
9420;SDS011;4749;51.398;5.466;2023-03-14T04:22:30;5.77;;;0.70;;
9420;SDS011;4749;51.398;5.466;2023-03-14T04:24:57;4.40;;;0.70;;
9420;SDS011;4749;51.398;5.466;2023-03-14T04:27:25;2.30;;;0.80;;
9420;SDS011;4749;51.398;5.466;2023-03-14T04:29:52;2.10;;;0.70;;
9420;SDS011;4749;51.398;5.466;2023-03-14T04:32:19;2.57;;;0.90;;
9420;SDS011;4749;51.398;5.466;2023-03-14T04:34:46;1.83;;;0.80;;
9420;SDS011;4749;51.398;5.466;2023-03-14T04:37:14;1.57;;;0.57;;
9420;SDS011;4749;51.398;5.466;2023-03-14T04:39:41;2.23;;;0.83;;
9420;SDS011;4749;51.398;5.466;2023-03-14T04:42:09;3.80;;;1.00;;
9420;SDS011;4749;51.398;5.466;2023-03-14T04:44:36;3.07;;;1.47;;
9420;SDS011;4749;51.398;5.466;2023-03-14T04:47:03;3.60;;;0.90;;
9420;SDS011;4749;51.398;5.466;2023-03-14T04:49:30;3.13;;;1.00;;
9420;SDS011;4749;51.398;5.466;2023-03-14T04:51:58;4.67;;;1.10;;
9420;SDS011;4749;51.398;5.466;2023-03-14T04:54:25;4.07;;;1.00;;
9420;SDS011;4749;51.398;5.466;2023-03-14T04:56:52;3.28;;;1.05;;
9420;SDS011;4749;51.398;5.466;2023-03-14T04:59:20;3.13;;;1.13;;
9420;SDS011;4749;51.398;5.466;2023-03-14T05:01:47;4.17;;;1.50;;
9420;SDS011;4749;51.398;5.466;2023-03-14T05:04:16;3.33;;;1.20;;
9420;SDS011;4749;51.398;5.466;2023-03-14T05:06:43;3.00;;;1.43;;
9420;SDS011;4749;51.398;5.466;2023-03-14T05:09:10;3.33;;;1.53;;
9420;SDS011;4749;51.398;5.466;2023-03-14T05:11:38;4.60;;;1.97;;
9420;SDS011;4749;51.398;5.466;2023-03-14T05:14:05;3.53;;;1.90;;
9420;SDS011;4749;51.398;5.466;2023-03-14T05:16:32;3.20;;;1.80;;
9420;SDS011;4749;51.398;5.466;2023-03-14T05:19:00;5.90;;;1.90;;
9420;SDS011;4749;51.398;5.466;2023-03-14T05:21:28;6.17;;;2.03;;
9420;SDS011;4749;51.398;5.466;2023-03-14T05:23:55;5.47;;;1.80;;
9420;SDS011;4749;51.398;5.466;2023-03-14T05:26:23;3.97;;;2.03;;
9420;SDS011;4749;51.398;5.466;2023-03-14T05:28:50;4.40;;;2.47;;
9420;SDS011;4749;51.398;5.466;2023-03-14T05:31:17;7.17;;;2.70;;
9420;SDS011;4749;51.398;5.466;2023-03-14T05:33:45;6.97;;;2.73;;
9420;SDS011;4749;51.398;5.466;2023-03-14T05:36:12;5.87;;;2.40;;
9420;SDS011;4749;51.398;5.466;2023-03-14T05:38:39;5.97;;;2.10;;
9420;SDS011;4749;51.398;5.466;2023-03-14T05:41:07;5.47;;;2.10;;
9420;SDS011;4749;51.398;5.466;2023-03-14T05:43:34;5.03;;;2.20;;
9420;SDS011;4749;51.398;5.466;2023-03-14T05:46:02;6.20;;;2.40;;
9420;SDS011;4749;51.398;5.466;2023-03-14T05:48:30;4.50;;;2.10;;
9420;SDS011;4749;51.398;5.466;2023-03-14T05:50:57;5.93;;;2.50;;
9420;SDS011;4749;51.398;5.466;2023-03-14T05:53:25;4.10;;;2.20;;
9420;SDS011;4749;51.398;5.466;2023-03-14T05:55:53;5.23;;;2.07;;
9420;SDS011;4749;51.398;5.466;2023-03-14T05:58:23;4.33;;;2.13;;
9420;SDS011;4749;51.398;5.466;2023-03-14T06:00:51;6.55;;;1.83;;
9420;SDS011;4749;51.398;5.466;2023-03-14T06:03:18;4.23;;;1.60;;
9420;SDS011;4749;51.398;5.466;2023-03-14T06:05:45;3.63;;;1.43;;
9420;SDS011;4749;51.398;5.466;2023-03-14T06:08:13;4.40;;;1.73;;
9420;SDS011;4749;51.398;5.466;2023-03-14T06:10:43;2.30;;;1.40;;
9420;SDS011;4749;51.398;5.466;2023-03-14T06:13:10;4.07;;;1.80;;
9420;SDS011;4749;51.398;5.466;2023-03-14T06:15:38;5.32;;;1.55;;
9420;SDS011;4749;51.398;5.466;2023-03-14T06:18:05;4.67;;;1.70;;
9420;SDS011;4749;51.398;5.466;2023-03-14T06:20:33;3.60;;;1.60;;
9420;SDS011;4749;51.398;5.466;2023-03-14T06:23:03;4.50;;;1.87;;
9420;SDS011;4749;51.398;5.466;2023-03-14T06:25:30;3.67;;;1.38;;
9420;SDS011;4749;51.398;5.466;2023-03-14T06:27:58;3.67;;;1.93;;
9420;SDS011;4749;51.398;5.466;2023-03-14T06:30:26;2.17;;;1.65;;
9420;SDS011;4749;51.398;5.466;2023-03-14T06:32:54;4.28;;;1.30;;
9420;SDS011;4749;51.398;5.466;2023-03-14T06:35:22;5.32;;;1.52;;
9420;SDS011;4749;51.398;5.466;2023-03-14T06:37:49;4.45;;;1.45;;
9420;SDS011;4749;51.398;5.466;2023-03-14T06:40:16;4.35;;;1.60;;
9420;SDS011;4749;51.398;5.466;2023-03-14T06:42:44;3.93;;;1.60;;
9420;SDS011;4749;51.398;5.466;2023-03-14T06:45:12;4.93;;;1.60;;
9420;SDS011;4749;51.398;5.466;2023-03-14T06:47:40;5.10;;;1.37;;
9420;SDS011;4749;51.398;5.466;2023-03-14T06:50:08;2.70;;;1.92;;
9420;SDS011;4749;51.398;5.466;2023-03-14T06:52:36;4.43;;;1.48;;
9420;SDS011;4749;51.398;5.466;2023-03-14T06:55:07;3.85;;;1.60;;
9420;SDS011;4749;51.398;5.466;2023-03-14T06:57:35;2.55;;;1.38;;
9420;SDS011;4749;51.398;5.466;2023-03-14T07:00:03;3.38;;;1.48;;
9420;SDS011;4749;51.398;5.466;2023-03-14T07:02:31;3.70;;;1.38;;
9420;SDS011;4749;51.398;5.466;2023-03-14T07:05:08;4.35;;;1.50;;
9420;SDS011;4749;51.398;5.466;2023-03-14T07:07:38;4.40;;;1.65;;
9420;SDS011;4749;51.398;5.466;2023-03-14T07:10:05;4.07;;;1.80;;
9420;SDS011;4749;51.398;5.466;2023-03-14T07:12:35;2.15;;;1.52;;
9420;SDS011;4749;51.398;5.466;2023-03-14T07:15:03;3.90;;;1.48;;
9420;SDS011;4749;51.398;5.466;2023-03-14T07:17:44;3.83;;;1.70;;
9420;SDS011;4749;51.398;5.466;2023-03-14T07:20:11;2.65;;;1.60;;
9420;SDS011;4749;51.398;5.466;2023-03-14T07:22:39;3.85;;;1.60;;
9420;SDS011;4749;51.398;5.466;2023-03-14T07:25:06;3.58;;;1.60;;
9420;SDS011;4749;51.398;5.466;2023-03-14T07:27:36;3.87;;;1.73;;
9420;SDS011;4749;51.398;5.466;2023-03-14T07:30:03;3.15;;;1.60;;
9420;SDS011;4749;51.398;5.466;2023-03-14T07:32:32;2.35;;;1.63;;
9420;SDS011;4749;51.398;5.466;2023-03-14T07:34:59;2.92;;;1.42;;
9420;SDS011;4749;51.398;5.466;2023-03-14T07:37:26;2.50;;;1.90;;
9420;SDS011;4749;51.398;5.466;2023-03-14T07:39:54;2.33;;;1.60;;
9420;SDS011;4749;51.398;5.466;2023-03-14T07:42:21;4.63;;;1.73;;
9420;SDS011;4749;51.398;5.466;2023-03-14T07:44:48;2.70;;;1.40;;
9420;SDS011;4749;51.398;5.466;2023-03-14T07:47:16;1.02;;;0.70;;
9420;SDS011;4749;51.398;5.466;2023-03-14T07:49:43;1.00;;;0.60;;
9420;SDS011;4749;51.398;5.466;2023-03-14T07:52:10;1.00;;;0.70;;
9420;SDS011;4749;51.398;5.466;2023-03-14T07:54:37;0.63;;;0.60;;
9420;SDS011;4749;51.398;5.466;2023-03-14T07:57:05;1.00;;;0.80;;
9420;SDS011;4749;51.398;5.466;2023-03-14T07:59:32;0.63;;;0.53;;
9420;SDS011;4749;51.398;5.466;2023-03-14T08:01:59;2.83;;;0.90;;
9420;SDS011;4749;51.398;5.466;2023-03-14T08:04:26;1.10;;;0.70;;
9420;SDS011;4749;51.398;5.466;2023-03-14T08:06:53;3.07;;;0.70;;
9420;SDS011;4749;51.398;5.466;2023-03-14T08:09:21;1.80;;;0.90;;
9420;SDS011;4749;51.398;5.466;2023-03-14T08:11:48;1.30;;;1.00;;
9420;SDS011;4749;51.398;5.466;2023-03-14T08:14:15;4.87;;;1.20;;
9420;SDS011;4749;51.398;5.466;2023-03-14T08:16:42;2.30;;;1.70;;
9420;SDS011;4749;51.398;5.466;2023-03-14T08:19:10;2.97;;;1.70;;
9420;SDS011;4749;51.398;5.466;2023-03-14T08:21:38;2.63;;;1.83;;
9420;SDS011;4749;51.398;5.466;2023-03-14T08:24:05;2.83;;;1.60;;
9420;SDS011;4749;51.398;5.466;2023-03-14T08:26:32;2.23;;;1.70;;
9420;SDS011;4749;51.398;5.466;2023-03-14T08:28:59;3.00;;;1.20;;
9420;SDS011;4749;51.398;5.466;2023-03-14T08:31:27;2.20;;;1.30;;
9420;SDS011;4749;51.398;5.466;2023-03-14T08:33:54;4.53;;;1.40;;
9420;SDS011;4749;51.398;5.466;2023-03-14T08:36:21;2.20;;;1.10;;
9420;SDS011;4749;51.398;5.466;2023-03-14T08:38:49;3.33;;;1.00;;
9420;SDS011;4749;51.398;5.466;2023-03-14T08:41:17;2.50;;;1.20;;
9420;SDS011;4749;51.398;5.466;2023-03-14T08:43:44;2.50;;;1.30;;
9420;SDS011;4749;51.398;5.466;2023-03-14T08:46:12;1.23;;;1.00;;
9420;SDS011;4749;51.398;5.466;2023-03-14T08:48:39;3.33;;;1.60;;
9420;SDS011;4749;51.398;5.466;2023-03-14T08:51:07;2.33;;;1.50;;
9420;SDS011;4749;51.398;5.466;2023-03-14T08:53:37;3.40;;;1.40;;
9420;SDS011;4749;51.398;5.466;2023-03-14T08:56:05;2.60;;;1.57;;
9420;SDS011;4749;51.398;5.466;2023-03-14T08:58:36;6.00;;;2.87;;
9420;SDS011;4749;51.398;5.466;2023-03-14T09:01:05;3.57;;;1.20;;
9420;SDS011;4749;51.398;5.466;2023-03-14T09:03:34;2.93;;;1.17;;
9420;SDS011;4749;51.398;5.466;2023-03-14T09:06:02;3.90;;;1.10;;
9420;SDS011;4749;51.398;5.466;2023-03-14T09:08:32;2.57;;;0.90;;
9420;SDS011;4749;51.398;5.466;2023-03-14T09:11:01;3.37;;;0.80;;
9420;SDS011;4749;51.398;5.466;2023-03-14T09:13:29;2.40;;;0.80;;
9420;SDS011;4749;51.398;5.466;2023-03-14T09:15:56;5.27;;;1.00;;
9420;SDS011;4749;51.398;5.466;2023-03-14T09:18:23;2.40;;;0.70;;
9420;SDS011;4749;51.398;5.466;2023-03-14T09:20:50;3.47;;;1.00;;
9420;SDS011;4749;51.398;5.466;2023-03-14T09:23:18;4.13;;;0.90;;
9420;SDS011;4749;51.398;5.466;2023-03-14T09:25:45;1.90;;;0.80;;
9420;SDS011;4749;51.398;5.466;2023-03-14T09:28:12;5.20;;;1.07;;
9420;SDS011;4749;51.398;5.466;2023-03-14T09:30:39;1.57;;;1.00;;
9420;SDS011;4749;51.398;5.466;2023-03-14T09:33:07;1.63;;;0.90;;
9420;SDS011;4749;51.398;5.466;2023-03-14T09:35:34;1.90;;;0.80;;
9420;SDS011;4749;51.398;5.466;2023-03-14T09:38:01;1.73;;;1.00;;
9420;SDS011;4749;51.398;5.466;2023-03-14T09:40:31;1.77;;;0.98;;
9420;SDS011;4749;51.398;5.466;2023-03-14T09:43:02;2.30;;;1.05;;
9420;SDS011;4749;51.398;5.466;2023-03-14T09:45:35;2.00;;;1.35;;
9420;SDS011;4749;51.398;5.466;2023-03-14T09:48:15;4.00;;;1.27;;
9420;SDS011;4749;51.398;5.466;2023-03-14T09:50:53;1.67;;;1.10;;
9420;SDS011;4749;51.398;5.466;2023-03-14T09:53:28;1.73;;;0.83;;
9420;SDS011;4749;51.398;5.466;2023-03-14T09:56:28;2.83;;;0.97;;
9420;SDS011;4749;51.398;5.466;2023-03-14T09:58:59;0.93;;;0.73;;
9420;SDS011;4749;51.398;5.466;2023-03-14T10:01:31;1.13;;;0.60;;
9420;SDS011;4749;51.398;5.466;2023-03-14T10:04:05;2.10;;;0.70;;
9420;SDS011;4749;51.398;5.466;2023-03-14T10:06:39;0.43;;;0.43;;
9420;SDS011;4749;51.398;5.466;2023-03-14T10:09:08;2.27;;;0.90;;
9420;SDS011;4749;51.398;5.466;2023-03-14T10:11:55;2.03;;;0.60;;
9420;SDS011;4749;51.398;5.466;2023-03-14T10:14:35;0.67;;;0.50;;
9420;SDS011;4749;51.398;5.466;2023-03-14T10:17:12;2.50;;;0.30;;
9420;SDS011;4749;51.398;5.466;2023-03-14T10:19:51;1.00;;;0.50;;
9420;SDS011;4749;51.398;5.466;2023-03-14T10:22:23;2.50;;;0.50;;
9420;SDS011;4749;51.398;5.466;2023-03-14T10:24:56;0.47;;;0.40;;
9420;SDS011;4749;51.398;5.466;2023-03-14T10:27:32;2.47;;;0.67;;
9420;SDS011;4749;51.398;5.466;2023-03-14T10:30:06;3.50;;;0.53;;
9420;SDS011;4749;51.398;5.466;2023-03-14T10:32:52;2.80;;;0.60;;
9420;SDS011;4749;51.398;5.466;2023-03-14T10:35:21;1.25;;;0.52;;
9420;SDS011;4749;51.398;5.466;2023-03-14T10:37:57;1.33;;;0.55;;
9420;SDS011;4749;51.398;5.466;2023-03-14T10:40:31;1.75;;;0.70;;
9420;SDS011;4749;51.398;5.466;2023-03-14T10:43:11;4.18;;;0.80;;
9420;SDS011;4749;51.398;5.466;2023-03-14T10:45:56;1.27;;;0.80;;
9420;SDS011;4749;51.398;5.466;2023-03-14T10:48:44;1.83;;;0.85;;
9420;SDS011;4749;51.398;5.466;2023-03-14T10:53:59;5.23;;;1.00;;
9420;SDS011;4749;51.398;5.466;2023-03-14T10:56:33;5.10;;;1.10;;
9420;SDS011;4749;51.398;5.466;2023-03-14T10:59:03;4.32;;;0.93;;
9420;SDS011;4749;51.398;5.466;2023-03-14T11:01:41;8.47;;;1.10;;
9420;SDS011;4749;51.398;5.466;2023-03-14T11:10:12;6.50;;;1.40;;
9420;SDS011;4749;51.398;5.466;2023-03-14T11:15:51;5.67;;;1.23;;
9420;SDS011;4749;51.398;5.466;2023-03-14T11:22:14;7.27;;;1.43;;
9420;SDS011;4749;51.398;5.466;2023-03-14T11:25:06;5.77;;;1.00;;
9420;SDS011;4749;51.398;5.466;2023-03-14T11:35:49;6.32;;;1.30;;
9420;SDS011;4749;51.398;5.466;2023-03-14T11:38:50;6.73;;;1.40;;
9420;SDS011;4749;51.398;5.466;2023-03-14T11:41:36;12.20;;;1.80;;
9420;SDS011;4749;51.398;5.466;2023-03-14T11:44:10;5.07;;;1.30;;
9420;SDS011;4749;51.398;5.466;2023-03-14T11:47:03;5.63;;;1.20;;
9420;SDS011;4749;51.398;5.466;2023-03-14T11:50:02;5.87;;;1.30;;
9420;SDS011;4749;51.398;5.466;2023-03-14T11:53:05;8.70;;;1.67;;
9420;SDS011;4749;51.398;5.466;2023-03-14T11:55:49;9.90;;;1.50;;
9420;SDS011;4749;51.398;5.466;2023-03-14T11:58:19;5.20;;;1.40;;
9420;SDS011;4749;51.398;5.466;2023-03-14T12:00:53;8.57;;;1.43;;
9420;SDS011;4749;51.398;5.466;2023-03-14T12:06:13;5.73;;;1.33;;
9420;SDS011;4749;51.398;5.466;2023-03-14T12:08:58;8.63;;;1.70;;
9420;SDS011;4749;51.398;5.466;2023-03-14T12:11:48;9.33;;;1.47;;
9420;SDS011;4749;51.398;5.466;2023-03-14T12:14:29;14.00;;;1.67;;
9420;SDS011;4749;51.398;5.466;2023-03-14T12:17:05;9.37;;;1.67;;
9420;SDS011;4749;51.398;5.466;2023-03-14T12:20:02;12.67;;;1.67;;
9420;SDS011;4749;51.398;5.466;2023-03-14T12:22:42;9.88;;;2.05;;
9420;SDS011;4749;51.398;5.466;2023-03-14T12:25:22;12.18;;;2.60;;
9420;SDS011;4749;51.398;5.466;2023-03-14T12:35:50;16.08;;;2.15;;
9420;SDS011;4749;51.398;5.466;2023-03-14T12:41:26;10.88;;;2.47;;
9420;SDS011;4749;51.398;5.466;2023-03-14T12:46:59;8.03;;;2.07;;
9420;SDS011;4749;51.398;5.466;2023-03-14T12:49:40;13.83;;;2.10;;
9420;SDS011;4749;51.398;5.466;2023-03-14T12:52:14;12.13;;;2.17;;
9420;SDS011;4749;51.398;5.466;2023-03-14T12:55:04;14.97;;;2.60;;
9420;SDS011;4749;51.398;5.466;2023-03-14T12:57:52;12.77;;;2.07;;
9420;SDS011;4749;51.398;5.466;2023-03-14T13:00:32;13.47;;;2.07;;
9420;SDS011;4749;51.398;5.466;2023-03-14T13:03:03;17.53;;;2.47;;
9420;SDS011;4749;51.398;5.466;2023-03-14T13:05:52;10.70;;;2.67;;
9420;SDS011;4749;51.398;5.466;2023-03-14T13:08:41;12.63;;;2.50;;
9420;SDS011;4749;51.398;5.466;2023-03-14T13:11:20;12.57;;;2.10;;
9420;SDS011;4749;51.398;5.466;2023-03-14T13:13:48;12.95;;;2.65;;
9420;SDS011;4749;51.398;5.466;2023-03-14T13:16:24;12.77;;;2.77;;
9420;SDS011;4749;51.398;5.466;2023-03-14T13:19:02;15.03;;;2.27;;
9420;SDS011;4749;51.398;5.466;2023-03-14T13:21:43;13.57;;;2.37;;
9420;SDS011;4749;51.398;5.466;2023-03-14T13:24:20;10.60;;;2.47;;
9420;SDS011;4749;51.398;5.466;2023-03-14T13:26:54;10.90;;;1.97;;
9420;SDS011;4749;51.398;5.466;2023-03-14T13:29:23;12.97;;;2.03;;
9420;SDS011;4749;51.398;5.466;2023-03-14T13:31:59;9.90;;;1.50;;
9420;SDS011;4749;51.398;5.466;2023-03-14T13:34:39;8.57;;;1.67;;
9420;SDS011;4749;51.398;5.466;2023-03-14T13:37:21;5.13;;;1.60;;
9420;SDS011;4749;51.398;5.466;2023-03-14T13:39:51;13.63;;;2.17;;
9420;SDS011;4749;51.398;5.466;2023-03-14T13:42:25;9.23;;;1.20;;
9420;SDS011;4749;51.398;5.466;2023-03-14T13:44:56;6.53;;;1.37;;
9420;SDS011;4749;51.398;5.466;2023-03-14T13:47:24;11.43;;;2.10;;
9420;SDS011;4749;51.398;5.466;2023-03-14T13:49:53;9.77;;;1.63;;
9420;SDS011;4749;51.398;5.466;2023-03-14T13:52:36;8.93;;;1.93;;
9420;SDS011;4749;51.398;5.466;2023-03-14T13:55:05;9.57;;;1.57;;
9420;SDS011;4749;51.398;5.466;2023-03-14T13:57:51;6.03;;;1.40;;
9420;SDS011;4749;51.398;5.466;2023-03-14T14:00:27;6.27;;;1.13;;
9420;SDS011;4749;51.398;5.466;2023-03-14T14:02:56;7.13;;;1.43;;
9420;SDS011;4749;51.398;5.466;2023-03-14T14:05:26;7.20;;;1.27;;
9420;SDS011;4749;51.398;5.466;2023-03-14T14:07:56;8.23;;;1.30;;
9420;SDS011;4749;51.398;5.466;2023-03-14T14:10:25;6.22;;;1.45;;
9420;SDS011;4749;51.398;5.466;2023-03-14T14:13:03;7.38;;;1.63;;
9420;SDS011;4749;51.398;5.466;2023-03-14T14:15:40;10.73;;;1.48;;
9420;SDS011;4749;51.398;5.466;2023-03-14T14:18:11;10.43;;;1.87;;
9420;SDS011;4749;51.398;5.466;2023-03-14T14:20:45;9.75;;;1.40;;
9420;SDS011;4749;51.398;5.466;2023-03-14T14:23:17;11.32;;;1.67;;
9420;SDS011;4749;51.398;5.466;2023-03-14T14:25:52;9.45;;;1.67;;
9420;SDS011;4749;51.398;5.466;2023-03-14T14:28:30;6.13;;;1.20;;
9420;SDS011;4749;51.398;5.466;2023-03-14T14:31:15;6.43;;;1.27;;
9420;SDS011;4749;51.398;5.466;2023-03-14T14:33:57;10.88;;;2.28;;
9420;SDS011;4749;51.398;5.466;2023-03-14T14:36:39;6.70;;;1.45;;
9420;SDS011;4749;51.398;5.466;2023-03-14T14:39:14;6.82;;;1.25;;
9420;SDS011;4749;51.398;5.466;2023-03-14T14:41:47;4.90;;;1.52;;
9420;SDS011;4749;51.398;5.466;2023-03-14T14:44:18;7.43;;;1.63;;
9420;SDS011;4749;51.398;5.466;2023-03-14T14:46:56;8.57;;;1.38;;
9420;SDS011;4749;51.398;5.466;2023-03-14T14:49:29;6.40;;;1.35;;
9420;SDS011;4749;51.398;5.466;2023-03-14T14:52:03;7.35;;;1.38;;
9420;SDS011;4749;51.398;5.466;2023-03-14T14:54:45;5.75;;;1.48;;
9420;SDS011;4749;51.398;5.466;2023-03-14T14:57:21;6.88;;;1.27;;
9420;SDS011;4749;51.398;5.466;2023-03-14T15:00:07;4.80;;;1.33;;
9420;SDS011;4749;51.398;5.466;2023-03-14T15:02:47;3.20;;;1.23;;
9420;SDS011;4749;51.398;5.466;2023-03-14T15:05:21;8.02;;;1.23;;
9420;SDS011;4749;51.398;5.466;2023-03-14T15:07:52;3.43;;;1.17;;
9420;SDS011;4749;51.398;5.466;2023-03-14T15:10:20;6.30;;;1.07;;
9420;SDS011;4749;51.398;5.466;2023-03-14T15:12:50;8.57;;;1.43;;
9420;SDS011;4749;51.398;5.466;2023-03-14T15:15:18;7.67;;;1.23;;
9420;SDS011;4749;51.398;5.466;2023-03-14T15:17:46;9.30;;;1.27;;
9420;SDS011;4749;51.398;5.466;2023-03-14T15:20:14;7.37;;;1.10;;
9420;SDS011;4749;51.398;5.466;2023-03-14T15:22:44;4.37;;;1.10;;
9420;SDS011;4749;51.398;5.466;2023-03-14T15:25:13;6.20;;;1.83;;
9420;SDS011;4749;51.398;5.466;2023-03-14T15:28:00;7.40;;;0.90;;
9420;SDS011;4749;51.398;5.466;2023-03-14T15:30:28;6.07;;;1.40;;
9420;SDS011;4749;51.398;5.466;2023-03-14T15:32:55;6.10;;;1.63;;
9420;SDS011;4749;51.398;5.466;2023-03-14T15:35:22;5.40;;;0.90;;
9420;SDS011;4749;51.398;5.466;2023-03-14T15:37:49;8.13;;;1.33;;
9420;SDS011;4749;51.398;5.466;2023-03-14T15:40:17;5.80;;;1.43;;
9420;SDS011;4749;51.398;5.466;2023-03-14T15:42:48;5.30;;;1.17;;
9420;SDS011;4749;51.398;5.466;2023-03-14T15:45:15;6.90;;;1.40;;
9420;SDS011;4749;51.398;5.466;2023-03-14T15:47:43;6.77;;;1.60;;
9420;SDS011;4749;51.398;5.466;2023-03-14T15:50:10;5.53;;;1.40;;
9420;SDS011;4749;51.398;5.466;2023-03-14T15:52:37;8.67;;;1.57;;
9420;SDS011;4749;51.398;5.466;2023-03-14T15:55:05;9.10;;;1.53;;
9420;SDS011;4749;51.398;5.466;2023-03-14T15:57:32;11.20;;;1.73;;
9420;SDS011;4749;51.398;5.466;2023-03-14T16:00:00;5.17;;;1.40;;
9420;SDS011;4749;51.398;5.466;2023-03-14T16:02:27;5.57;;;1.53;;
9420;SDS011;4749;51.398;5.466;2023-03-14T16:04:55;4.40;;;1.20;;
9420;SDS011;4749;51.398;5.466;2023-03-14T16:07:23;4.47;;;1.63;;
9420;SDS011;4749;51.398;5.466;2023-03-14T16:09:50;6.63;;;1.30;;
9420;SDS011;4749;51.398;5.466;2023-03-14T16:12:18;5.90;;;1.10;;
9420;SDS011;4749;51.398;5.466;2023-03-14T16:14:46;7.70;;;1.30;;
9420;SDS011;4749;51.398;5.466;2023-03-14T16:17:14;11.77;;;1.77;;
9420;SDS011;4749;51.398;5.466;2023-03-14T16:19:41;6.57;;;1.77;;
9420;SDS011;4749;51.398;5.466;2023-03-14T16:22:08;7.80;;;1.60;;
9420;SDS011;4749;51.398;5.466;2023-03-14T16:24:36;7.20;;;2.00;;
9420;SDS011;4749;51.398;5.466;2023-03-14T16:27:03;4.47;;;1.13;;